Time;durP1;ratioP1;P1;durP2;ratioP2;P2;SDS_P1;SDS_P2;PMS_P1;PMS_P2;Temp;Humidity;BMP_temperature;BMP_pressure;BME280_temperature;BME280_humidity;BME280_pressure;Samples;Min_cycle;Max_cycle;Signal;HPM_P1;HPM_P2
2022/05/10 00:00:01;;;;;;;4.17;3.00;;;15.20;56.40;;;;;;4926752;29;20199;-62
2022/05/10 00:02:27;;;;;;;4.87;3.37;;;15.20;57.30;;;;;;4926359;29;20207;-62
2022/05/10 00:04:53;;;;;;;12.17;4.23;;;15.10;56.80;;;;;;4927846;29;20198;-63
2022/05/10 00:07:20;;;;;;;4.80;3.67;;;15.10;56.80;;;;;;4925989;29;20729;-64
2022/05/10 00:09:46;;;;;;;5.00;4.47;;;15.10;56.60;;;;;;4928045;29;20536;-62
2022/05/10 00:12:11;;;;;;;11.67;5.10;;;15.00;57.30;;;;;;4925902;29;20214;-65
2022/05/10 00:14:38;;;;;;;8.23;4.53;;;15.00;57.30;;;;;;4927648;29;20206;-62
2022/05/10 00:17:04;;;;;;;3.50;3.20;;;15.00;57.40;;;;;;4926880;29;20214;-65
2022/05/10 00:19:30;;;;;;;5.20;4.00;;;14.90;57.10;;;;;;4931791;29;20224;-75
2022/05/10 00:21:57;;;;;;;7.53;3.23;;;14.90;57.20;;;;;;4930524;29;20219;-74
2022/05/10 00:24:23;;;;;;;8.20;4.90;;;14.90;57.40;;;;;;4931564;29;20211;-75
2022/05/10 00:26:49;;;;;;;4.37;3.87;;;14.90;58.10;;;;;;4929508;29;20290;-75
2022/05/10 00:29:15;;;;;;;12.23;5.03;;;14.80;57.50;;;;;;4930772;29;20282;-70
2022/05/10 00:31:42;;;;;;;7.47;3.87;;;14.80;57.80;;;;;;4929404;29;20313;-71
2022/05/10 00:34:07;;;;;;;4.90;3.83;;;14.80;57.60;;;;;;4930682;29;20210;-75
2022/05/10 00:36:33;;;;;;;7.57;3.63;;;14.80;57.90;;;;;;4929616;29;20246;-76
2022/05/10 00:38:59;;;;;;;6.57;3.60;;;14.70;57.80;;;;;;4931305;29;20273;-77
2022/05/10 00:41:46;;;;;;;5.83;3.63;;;14.70;58.00;;;;;;4929214;29;20199;-75
2022/05/10 00:44:30;;;;;;;7.23;4.10;;;14.60;58.30;;;;;;4931326;29;20261;-76
2022/05/10 00:47:02;;;;;;;6.13;3.80;;;14.60;58.50;;;;;;4929736;29;20207;-75
2022/05/10 00:49:44;;;;;;;4.73;3.77;;;14.60;58.20;;;;;;4931330;29;20769;-75
2022/05/10 00:52:37;;;;;;;6.60;4.80;;;14.50;58.60;;;;;;4924397;29;20271;-75
2022/05/10 00:55:15;;;;;;;5.00;3.90;;;14.50;58.80;;;;;;4930087;29;20191;-75
2022/05/10 00:57:46;;;;;;;9.67;4.67;;;14.50;58.60;;;;;;4928085;29;20233;-76
2022/05/10 01:00:15;;;;;;;5.60;3.93;;;14.40;59.20;;;;;;4919350;29;20276;-76
2022/05/10 01:02:47;;;;;;;10.20;4.20;;;14.40;58.80;;;;;;4929124;29;20219;-75
2022/05/10 01:05:25;;;;;;;6.23;3.67;;;14.30;59.20;;;;;;4921727;29;20294;-75
2022/05/10 01:08:24;;;;;;;5.20;4.00;;;14.30;59.30;;;;;;4929440;29;20266;-75
2022/05/10 01:10:56;;;;;;;8.40;4.27;;;14.20;59.50;;;;;;4918318;29;20225;-75
2022/05/10 01:13:47;;;;;;;4.90;3.43;;;14.20;59.80;;;;;;4929457;29;20818;-74
2022/05/10 01:16:16;;;;;;;6.33;4.50;;;14.20;59.60;;;;;;4928413;29;20203;-74
2022/05/10 01:18:43;;;;;;;6.27;4.10;;;14.10;59.60;;;;;;4930576;29;20206;-74
2022/05/10 01:21:37;;;;;;;5.83;4.10;;;14.10;59.70;;;;;;4927304;29;20262;-74
2022/05/10 01:24:33;;;;;;;5.03;4.20;;;14.10;60.20;;;;;;4935171;29;20203;-74
2022/05/10 01:27:23;;;;;;;9.03;4.20;;;14.00;60.00;;;;;;4925980;29;20246;-74
2022/05/10 01:30:09;;;;;;;8.87;4.23;;;14.00;60.30;;;;;;4927622;29;20229;-75
2022/05/10 01:35:27;;;;;;;4.67;4.07;;;13.90;60.70;;;;;;4919717;29;20265;-75
2022/05/10 01:37:59;;;;;;;3.70;3.23;;;13.90;61.20;;;;;;4930445;29;20218;-74
2022/05/10 01:40:35;;;;;;;4.83;4.30;;;13.80;61.60;;;;;;4925641;29;20214;-74
2022/05/10 01:43:07;;;;;;;6.27;3.97;;;13.80;61.50;;;;;;4930526;29;20211;-73
2022/05/10 01:45:43;;;;;;;8.73;4.23;;;13.70;61.40;;;;;;4923381;29;20191;-73
2022/05/10 01:48:14;;;;;;;9.30;4.47;;;13.70;61.90;;;;;;4930232;29;20650;-73
2022/05/10 01:50:50;;;;;;;7.43;4.23;;;13.60;62.10;;;;;;4920035;29;20609;-73
2022/05/10 01:53:26;;;;;;;7.80;4.10;;;13.60;62.30;;;;;;4930287;29;20195;-73
2022/05/10 01:55:58;;;;;;;6.53;4.53;;;13.50;62.50;;;;;;4921551;29;20293;-75
2022/05/10 01:58:33;;;;;;;7.20;5.07;;;13.50;62.70;;;;;;4926058;29;20206;-74
2022/05/10 02:01:06;;;;;;;7.30;4.40;;;13.50;63.30;;;;;;4927941;29;20190;-75
2022/05/10 02:03:58;;;;;;;5.57;3.60;;;13.40;63.20;;;;;;4927436;29;20230;-74
2022/05/10 02:06:36;;;;;;;4.63;3.67;;;13.40;63.30;;;;;;4923201;29;20393;-72
2022/05/10 02:09:16;;;;;;;4.33;3.47;;;13.40;63.40;;;;;;4921473;29;20587;-73
2022/05/10 02:11:48;;;;;;;5.60;4.30;;;13.30;63.50;;;;;;4929663;29;20286;-73
2022/05/10 02:14:23;;;;;;;8.23;4.57;;;13.30;63.60;;;;;;4928742;29;20302;-72
2022/05/10 02:16:55;;;;;;;8.47;5.27;;;13.30;63.90;;;;;;4916825;29;20193;-82
2022/05/10 02:19:36;;;;;;;6.47;4.37;;;13.30;64.20;;;;;;4930426;29;20269;-81
2022/05/10 02:22:16;;;;;;;6.37;3.53;;;13.20;64.50;;;;;;4925148;29;20214;-77
2022/05/10 02:24:48;;;;;;;6.40;4.63;;;13.20;64.70;;;;;;4933556;29;20202;-77
2022/05/10 02:27:19;;;;;;;7.87;4.70;;;13.10;64.90;;;;;;4927624;29;20713;-79
2022/05/10 02:29:51;;;;;;;6.87;4.50;;;13.10;65.00;;;;;;4939061;29;20191;-78
2022/05/10 02:35:09;;;;;;;6.43;4.47;;;13.10;65.90;;;;;;4937233;29;20250;-79
2022/05/10 02:37:34;;;;;;;4.87;4.37;;;13.00;65.90;;;;;;4928658;29;20214;-78
2022/05/10 02:40:00;;;;;;;5.63;4.90;;;13.00;66.00;;;;;;4929365;29;20191;-77
2022/05/10 02:42:27;;;;;;;7.10;4.83;;;13.00;66.20;;;;;;4926008;29;20223;-79
2022/05/10 02:44:54;;;;;;;6.77;4.00;;;12.90;66.30;;;;;;4930145;29;20192;-78
2022/05/10 02:47:40;;;;;;;5.67;4.33;;;12.90;67.00;;;;;;4928045;29;20321;-79
2022/05/10 02:50:19;;;;;;;6.70;4.43;;;12.90;66.60;;;;;;4929965;29;20277;-79
2022/05/10 02:52:44;;;;;;;5.60;4.53;;;12.80;66.80;;;;;;4916952;29;20780;-78
2022/05/10 02:55:15;;;;;;;8.10;4.53;;;12.80;67.30;;;;;;4929593;29;20203;-78
2022/05/10 02:57:42;;;;;;;5.30;4.43;;;12.80;67.60;;;;;;4916712;29;20215;-78
2022/05/10 03:00:08;;;;;;;10.30;5.10;;;12.80;67.40;;;;;;4929578;29;20289;-78
2022/05/10 03:02:39;;;;;;;11.27;5.00;;;12.70;67.40;;;;;;4927211;29;20218;-78
2022/05/10 03:05:06;;;;;;;7.47;4.77;;;12.70;67.90;;;;;;4929214;29;20718;-78
2022/05/10 03:07:32;;;;;;;5.67;4.90;;;12.70;68.10;;;;;;4926843;29;20695;-79
2022/05/10 03:09:57;;;;;;;8.53;4.70;;;12.70;68.30;;;;;;4928860;29;20195;-79
2022/05/10 03:12:23;;;;;;;5.83;4.87;;;12.70;68.40;;;;;;4926895;29;20202;-77
2022/05/10 03:14:48;;;;;;;7.27;5.10;;;12.60;68.20;;;;;;4925713;29;20217;-79
2022/05/10 03:17:14;;;;;;;5.60;4.13;;;12.60;68.50;;;;;;4925422;29;20214;-77
2022/05/10 03:19:41;;;;;;;7.53;4.67;;;12.60;68.80;;;;;;4925789;29;20238;-77
2022/05/10 03:22:07;;;;;;;7.93;5.90;;;12.60;69.10;;;;;;4928652;29;20214;-78
2022/05/10 03:24:33;;;;;;;5.27;4.77;;;12.60;69.10;;;;;;4929474;29;20197;-78
2022/05/10 03:27:02;;;;;;;8.37;4.80;;;12.60;69.20;;;;;;4925396;29;20211;-78
2022/05/10 03:29:28;;;;;;;10.20;5.20;;;12.50;69.10;;;;;;4927204;29;20193;-77
2022/05/10 03:31:53;;;;;;;7.63;4.60;;;12.50;69.60;;;;;;4927271;29;20194;-78
2022/05/10 03:37:04;;;;;;;7.97;5.13;;;12.50;70.10;;;;;;4923340;29;20613;-78
2022/05/10 03:39:29;;;;;;;8.23;5.10;;;12.50;69.90;;;;;;4919792;29;20235;-78
2022/05/10 03:41:55;;;;;;;7.87;4.73;;;12.50;70.10;;;;;;4928818;29;20565;-77
2022/05/10 03:44:21;;;;;;;5.33;4.57;;;12.50;70.40;;;;;;4923439;29;20210;-80
2022/05/10 03:46:46;;;;;;;6.60;5.13;;;12.40;70.20;;;;;;4929199;29;20191;-81
2022/05/10 03:49:13;;;;;;;8.60;4.83;;;12.40;70.60;;;;;;4927225;29;20398;-80
2022/05/10 03:51:38;;;;;;;9.63;4.83;;;12.40;70.20;;;;;;4929205;29;20227;-78
2022/05/10 03:54:04;;;;;;;6.13;4.60;;;12.40;70.80;;;;;;4927865;29;20596;-78
2022/05/10 03:56:29;;;;;;;9.57;4.90;;;12.40;70.70;;;;;;4929321;29;20245;-81
2022/05/10 03:58:55;;;;;;;7.53;5.37;;;12.50;71.40;;;;;;4926655;29;20205;-79
2022/05/10 04:01:21;;;;;;;5.23;4.27;;;12.50;70.50;;;;;;4918691;29;20219;-70
2022/05/10 04:03:47;;;;;;;7.27;4.70;;;12.50;71.10;;;;;;4927054;29;20221;-73
2022/05/10 04:06:13;;;;;;;7.23;4.83;;;12.60;70.00;;;;;;4927487;29;20476;-71
2022/05/10 04:08:38;;;;;;;6.43;4.47;;;12.60;70.60;;;;;;4927785;29;20201;-71
2022/05/10 04:11:06;;;;;;;4.70;4.20;;;12.60;70.40;;;;;;4925820;29;20609;-70
2022/05/10 04:13:32;;;;;;;4.83;4.17;;;12.60;70.80;;;;;;4922038;29;20206;-71
2022/05/10 04:15:59;;;;;;;9.27;4.90;;;12.60;70.80;;;;;;4926034;29;20677;-70
2022/05/10 04:18:25;;;;;;;6.33;4.77;;;12.60;70.40;;;;;;4927217;29;20205;-70
2022/05/10 04:20:51;;;;;;;5.83;4.53;;;12.60;70.20;;;;;;4926045;29;20219;-71
2022/05/10 04:23:16;;;;;;;6.13;4.83;;;12.70;70.40;;;;;;4927580;29;20312;-70
2022/05/10 04:25:42;;;;;;;7.97;4.70;;;12.70;70.00;;;;;;4926200;29;20619;-71
2022/05/10 04:28:08;;;;;;;6.13;4.60;;;12.70;70.10;;;;;;4919159;29;20286;-70
2022/05/10 04:30:33;;;;;;;5.70;4.53;;;12.70;70.50;;;;;;4926248;29;20290;-70
2022/05/10 04:32:59;;;;;;;8.80;5.73;;;12.70;70.50;;;;;;4927732;29;20214;-71
2022/05/10 04:35:24;;;;;;;7.10;5.50;;;12.70;70.50;;;;;;4925307;29;20250;-70
2022/05/10 04:37:50;;;;;;;7.07;5.00;;;12.80;70.50;;;;;;4916900;29;20214;-70
2022/05/10 04:43:00;;;;;;;8.47;6.43;;;12.90;70.20;;;;;;4917464;29;20269;-70
2022/05/10 04:45:25;;;;;;;8.40;5.43;;;12.80;70.60;;;;;;4925565;29;21444;-71
2022/05/10 04:47:51;;;;;;;6.63;5.23;;;12.80;70.50;;;;;;4926046;29;20229;-72
2022/05/10 04:50:16;;;;;;;6.90;4.80;;;12.90;70.80;;;;;;4925709;29;20202;-71
2022/05/10 04:52:42;;;;;;;7.23;5.23;;;12.90;70.50;;;;;;4927365;29;20254;-71
2022/05/10 04:55:09;;;;;;;6.50;5.47;;;13.00;70.80;;;;;;4925705;29;20210;-72
2022/05/10 04:57:36;;;;;;;7.40;5.17;;;13.00;70.50;;;;;;4927436;29;20250;-71
2022/05/10 05:00:04;;;;;;;5.60;4.83;;;13.00;70.60;;;;;;4925619;29;20211;-72
2022/05/10 05:02:29;;;;;;;8.90;4.57;;;13.00;70.90;;;;;;4927313;29;20630;-72
2022/05/10 05:04:55;;;;;;;11.20;5.60;;;13.10;70.90;;;;;;4929168;29;20279;-72
2022/05/10 05:07:20;;;;;;;10.13;5.80;;;13.10;71.10;;;;;;4930583;29;20195;-73
2022/05/10 05:09:45;;;;;;;6.70;4.93;;;13.20;71.40;;;;;;4929272;29;20203;-72
2022/05/10 05:12:11;;;;;;;8.97;5.13;;;13.20;72.00;;;;;;4926311;29;20647;-71
2022/05/10 05:14:37;;;;;;;6.77;4.93;;;13.30;71.40;;;;;;4928505;29;20199;-70
2022/05/10 05:17:03;;;;;;;7.70;4.73;;;13.30;71.70;;;;;;4924716;29;20389;-71
2022/05/10 05:19:29;;;;;;;8.40;5.63;;;13.40;71.60;;;;;;4928602;29;20301;-72
2022/05/10 05:21:54;;;;;;;10.27;5.77;;;13.50;71.50;;;;;;4930537;29;20191;-70
2022/05/10 05:24:20;;;;;;;9.13;5.57;;;13.50;70.90;;;;;;4928003;29;20289;-71
2022/05/10 05:26:47;;;;;;;6.37;4.97;;;13.60;71.70;;;;;;4930618;29;20250;-72
2022/05/10 05:29:12;;;;;;;7.93;5.80;;;13.70;71.20;;;;;;4928602;29;20226;-72
2022/05/10 05:31:39;;;;;;;7.77;5.20;;;13.80;71.10;;;;;;4930272;29;20237;-72
2022/05/10 05:34:04;;;;;;;12.53;6.03;;;13.90;71.10;;;;;;4912926;29;20246;-73
2022/05/10 05:36:30;;;;;;;14.43;5.63;;;14.10;70.60;;;;;;4930070;29;20266;-72
2022/05/10 05:38:55;;;;;;;11.80;5.63;;;14.10;70.20;;;;;;4928396;29;20195;-73
2022/05/10 05:41:21;;;;;;;11.17;5.53;;;14.30;70.50;;;;;;4930270;29;20192;-73
2022/05/10 05:43:46;;;;;;;9.70;5.20;;;14.30;70.20;;;;;;4928155;29;20255;-72
2022/05/10 05:46:12;;;;;;;11.23;4.67;;;14.40;69.80;;;;;;4930180;29;20273;-74
2022/05/10 05:48:38;;;;;;;13.40;4.90;;;14.50;69.80;;;;;;4925372;29;20191;-72
2022/05/10 05:51:04;;;;;;;8.13;5.43;;;14.60;69.40;;;;;;4928341;29;20199;-64
2022/05/10 05:53:30;;;;;;;8.83;5.07;;;14.70;69.30;;;;;;4929645;29;20195;-69
2022/05/10 05:56:04;;;;;;;10.90;5.83;;;14.80;69.50;;;;;;4928099;29;20205;-72
2022/05/10 05:58:30;;;;;;;12.33;7.53;;;14.90;69.40;;;;;;4929659;29;20205;-76
2022/05/10 06:00:56;;;;;;;5.70;5.17;;;15.00;69.10;;;;;;4927985;29;20667;-75
2022/05/10 06:03:22;;;;;;;7.50;4.93;;;15.20;69.50;;;;;;4929478;29;20222;-75
2022/05/10 06:05:49;;;;;;;9.97;5.40;;;15.30;68.90;;;;;;4927956;29;20208;-75
2022/05/10 06:08:16;;;;;;;7.47;5.47;;;15.50;68.40;;;;;;4929645;29;20200;-75
2022/05/10 06:10:42;;;;;;;12.57;5.57;;;15.50;68.30;;;;;;4927880;29;20765;-75
2022/05/10 06:13:09;;;;;;;8.20;5.80;;;15.60;68.70;;;;;;4929557;29;20206;-75
2022/05/10 06:15:34;;;;;;;8.40;5.00;;;15.60;68.50;;;;;;4927367;29;20240;-75
2022/05/10 06:18:00;;;;;;;8.30;6.10;;;15.70;68.90;;;;;;4923468;29;20226;-74
2022/05/10 06:20:25;;;;;;;10.13;5.87;;;15.70;68.10;;;;;;4926163;29;20239;-75
2022/05/10 06:22:51;;;;;;;11.00;6.10;;;15.80;67.80;;;;;;4929069;29;20230;-74
2022/05/10 06:25:19;;;;;;;8.03;5.70;;;15.90;67.70;;;;;;4927972;29;20209;-74
2022/05/10 06:27:47;;;;;;;16.93;7.57;;;15.90;68.80;;;;;;4929110;29;20218;-75
2022/05/10 06:30:13;;;;;;;8.50;4.90;;;16.00;68.00;;;;;;4927664;29;20210;-76
2022/05/10 06:32:39;;;;;;;9.27;4.87;;;16.00;68.00;;;;;;4928633;29;20192;-75
2022/05/10 06:35:05;;;;;;;11.63;5.80;;;16.00;67.80;;;;;;4927048;29;20296;-75
2022/05/10 06:40:22;;;;;;;6.80;4.60;;;16.10;68.10;;;;;;4920611;29;20229;-75
2022/05/10 06:42:48;;;;;;;8.60;6.23;;;16.10;67.50;;;;;;4921389;29;20268;-75
2022/05/10 06:45:17;;;;;;;7.77;5.07;;;16.10;68.10;;;;;;4925906;29;20616;-75
2022/05/10 06:47:46;;;;;;;8.93;4.87;;;16.10;68.20;;;;;;4928537;29;20679;-74
2022/05/10 06:50:14;;;;;;;12.03;5.27;;;16.10;68.30;;;;;;4927064;29;20194;-74
2022/05/10 06:52:40;;;;;;;6.13;4.83;;;16.20;69.20;;;;;;4928782;29;20211;-74
2022/05/10 06:55:07;;;;;;;14.77;6.47;;;16.30;68.40;;;;;;4927370;29;20282;-74
2022/05/10 06:57:32;;;;;;;9.27;5.40;;;16.30;68.60;;;;;;4927381;29;20271;-74
2022/05/10 06:59:58;;;;;;;7.47;5.13;;;16.30;68.40;;;;;;4927302;29;20251;-74
2022/05/10 07:02:26;;;;;;;12.50;6.07;;;16.40;68.50;;;;;;4928180;29;20219;-76
2022/05/10 07:04:53;;;;;;;12.23;5.90;;;16.40;68.60;;;;;;4926481;29;20227;-75
2022/05/10 07:07:18;;;;;;;9.60;4.83;;;16.50;68.70;;;;;;4913583;29;20202;-77
2022/05/10 07:09:44;;;;;;;11.53;5.23;;;16.60;68.30;;;;;;4926521;29;20203;-76
2022/05/10 07:12:10;;;;;;;13.83;6.60;;;16.80;67.90;;;;;;4928714;29;20285;-74
2022/05/10 07:14:36;;;;;;;11.40;5.93;;;16.90;68.90;;;;;;4926730;29;20684;-70
2022/05/10 07:17:01;;;;;;;12.93;4.70;;;17.10;68.00;;;;;;4928162;29;20287;-76
2022/05/10 07:19:27;;;;;;;17.20;5.43;;;17.20;68.00;;;;;;4926898;29;20212;-76
2022/05/10 07:21:52;;;;;;;8.03;4.80;;;17.30;68.00;;;;;;4928862;29;20653;-76
2022/05/10 07:24:19;;;;;;;11.20;5.43;;;17.50;66.30;;;;;;4925540;29;20207;-64
2022/05/10 07:26:45;;;;;;;8.80;4.90;;;17.60;67.20;;;;;;4927979;29;20265;-63
2022/05/10 07:29:12;;;;;;;9.87;5.30;;;17.70;67.20;;;;;;4926192;29;20261;-65
2022/05/10 07:31:37;;;;;;;13.23;5.80;;;17.80;68.80;;;;;;4928267;29;20194;-64
2022/05/10 07:34:03;;;;;;;6.53;4.53;;;18.00;66.70;;;;;;4925952;29;20260;-65
2022/05/10 07:36:33;;;;;;;8.93;5.40;;;18.00;65.30;;;;;;4925859;29;20325;-64
2022/05/10 07:39:00;;;;;;;7.67;4.97;;;18.20;66.70;;;;;;4925911;29;20208;-64
2022/05/10 07:41:25;;;;;;;14.23;5.33;;;18.30;65.40;;;;;;4927752;29;20563;-64
2022/05/10 07:43:51;;;;;;;8.07;4.87;;;18.40;65.00;;;;;;4925840;29;20224;-64
2022/05/10 07:46:17;;;;;;;11.57;5.20;;;18.50;65.70;;;;;;4928084;29;20187;-64
2022/05/10 07:48:44;;;;;;;7.97;5.13;;;18.60;64.90;;;;;;4925608;29;20201;-65
2022/05/10 07:51:09;;;;;;;7.10;4.83;;;18.70;65.20;;;;;;4927604;29;20191;-66
2022/05/10 07:53:36;;;;;;;5.73;4.80;;;18.90;63.60;;;;;;4927319;29;20259;-63
2022/05/10 07:56:03;;;;;;;11.00;5.60;;;19.00;63.40;;;;;;4925583;29;20238;-64
2022/05/10 07:58:29;;;;;;;7.97;4.73;;;19.20;63.70;;;;;;4927292;29;20670;-68
2022/05/10 08:00:56;;;;;;;15.73;5.07;;;19.20;64.90;;;;;;4924508;29;20206;-65
2022/05/10 08:03:24;;;;;;;9.17;4.17;;;19.30;63.40;;;;;;4927588;29;20206;-66
2022/05/10 08:05:51;;;;;;;11.30;4.33;;;19.40;62.40;;;;;;4925244;29;20202;-66
2022/05/10 08:08:19;;;;;;;9.23;5.47;;;19.50;62.50;;;;;;4915835;29;20221;-66
2022/05/10 08:10:46;;;;;;;8.17;4.17;;;19.60;63.40;;;;;;4925603;29;20195;-64
2022/05/10 08:13:24;;;;;;;9.37;4.07;;;19.70;61.20;;;;;;4926910;29;20666;-64
2022/05/10 08:15:50;;;;;;;7.73;3.90;;;19.80;62.40;;;;;;4925772;29;20222;-65
2022/05/10 08:18:17;;;;;;;9.23;4.07;;;19.90;62.00;;;;;;4911545;29;20206;-66
2022/05/10 08:20:43;;;;;;;13.80;4.63;;;20.10;61.30;;;;;;4925494;29;20202;-66
2022/05/10 08:23:11;;;;;;;11.10;4.53;;;20.20;61.30;;;;;;4915593;29;20406;-65
2022/05/10 08:25:36;;;;;;;5.97;4.13;;;20.30;60.30;;;;;;4925519;29;20282;-65
2022/05/10 08:28:03;;;;;;;6.97;4.10;;;20.30;60.10;;;;;;4927280;29;20797;-66
2022/05/10 08:30:29;;;;;;;7.45;4.60;;;20.40;59.30;;;;;;4925664;29;20212;-68
2022/05/10 08:32:54;;;;;;;7.77;3.60;;;20.40;59.80;;;;;;4927249;29;20758;-66
2022/05/10 08:35:21;;;;;;;6.88;4.80;;;20.50;59.50;;;;;;4925288;29;20625;-67
2022/05/10 08:37:46;;;;;;;7.05;4.30;;;20.60;59.70;;;;;;4929923;29;20199;-67
2022/05/10 08:40:27;;;;;;;9.53;4.60;;;20.80;58.90;;;;;;4929485;29;20603;-67
2022/05/10 08:42:56;;;;;;;4.70;3.83;;;20.80;59.30;;;;;;4923927;29;20218;-66
2022/05/10 08:45:24;;;;;;;8.27;4.50;;;20.70;58.70;;;;;;4929265;29;20214;-65
2022/05/10 08:47:50;;;;;;;9.47;5.10;;;20.70;58.40;;;;;;4930718;29;20202;-65
2022/05/10 08:50:16;;;;;;;8.38;4.38;;;20.90;59.00;;;;;;4929152;29;20249;-64
2022/05/10 08:52:46;;;;;;;5.23;3.73;;;20.90;57.60;;;;;;4930841;29;20218;-76
2022/05/10 08:55:24;;;;;;;7.72;3.45;;;21.00;58.30;;;;;;4929672;29;20293;-73
2022/05/10 08:57:52;;;;;;;5.95;3.75;;;21.00;57.50;;;;;;4916790;29;20272;-68
2022/05/10 09:00:35;;;;;;;5.22;3.60;;;21.10;56.90;;;;;;4928048;29;20199;-67
2022/05/10 09:03:16;;;;;;;7.25;3.30;;;21.10;56.40;;;;;;4924377;29;20210;-68
2022/05/10 09:05:43;;;;;;;8.88;3.60;;;21.30;56.20;;;;;;4928146;29;20261;-67
2022/05/10 09:08:40;;;;;;;8.48;3.53;;;21.30;57.30;;;;;;4930208;29;20203;-67
2022/05/10 09:11:12;;;;;;;9.32;3.78;;;21.40;56.40;;;;;;4929259;29;20675;-79
2022/05/10 09:13:38;;;;;;;6.40;2.92;;;21.50;56.00;;;;;;4925394;29;20199;-67
2022/05/10 09:16:07;;;;;;;9.60;3.28;;;21.60;55.20;;;;;;4928092;29;20206;-68
2022/05/10 09:18:40;;;;;;;8.38;2.97;;;21.60;55.30;;;;;;4929744;29;20190;-67
2022/05/10 09:21:17;;;;;;;6.53;3.38;;;21.50;55.90;;;;;;4928633;29;20195;-66
2022/05/10 09:24:03;;;;;;;5.55;2.97;;;21.70;56.20;;;;;;4927164;29;20248;-66
2022/05/10 09:26:37;;;;;;;5.15;3.72;;;21.70;55.80;;;;;;4930631;29;20207;-64
2022/05/10 09:29:19;;;;;;;5.50;2.95;;;21.70;55.90;;;;;;4922218;29;20202;-65
2022/05/10 09:34:45;;;;;;;6.60;3.17;;;22.10;55.40;;;;;;4891589;29;20804;-69
2022/05/10 09:37:22;;;;;;;6.60;3.30;;;22.10;55.10;;;;;;4929861;29;20605;-65
2022/05/10 09:39:57;;;;;;;6.03;3.38;;;22.20;55.20;;;;;;4925958;29;20266;-66
2022/05/10 09:42:35;;;;;;;10.03;3.10;;;22.30;54.80;;;;;;4928611;29;20701;-66
2022/05/10 09:45:14;;;;;;;8.13;3.50;;;22.20;53.60;;;;;;4928316;29;20236;-67
2022/05/10 09:47:54;;;;;;;5.47;2.78;;;22.30;54.40;;;;;;4929555;29;20203;-66
2022/05/10 09:50:21;;;;;;;5.28;2.92;;;22.60;54.40;;;;;;4922243;29;20202;-66
2022/05/10 09:52:48;;;;;;;4.65;3.53;;;22.60;54.50;;;;;;4929872;29;20243;-65
2022/05/10 09:55:41;;;;;;;5.05;2.92;;;22.60;53.30;;;;;;4928051;29;20554;-65
2022/05/10 09:58:16;;;;;;;6.20;3.45;;;22.50;54.00;;;;;;4915352;29;20203;-65
2022/05/10 10:00:45;;;;;;;10.07;3.65;;;22.50;53.30;;;;;;4927866;29;20213;-66
2022/05/10 10:03:26;;;;;;;7.43;3.55;;;22.70;55.40;;;;;;4929563;29;20310;-66
2022/05/10 10:05:54;;;;;;;7.93;2.92;;;22.80;53.90;;;;;;4926982;29;20192;-65
2022/05/10 10:08:37;;;;;;;4.35;3.05;;;23.10;52.70;;;;;;4928953;29;20262;-67
2022/05/10 10:11:24;;;;;;;5.38;2.90;;;23.10;53.40;;;;;;4927348;29;20209;-67
2022/05/10 10:13:52;;;;;;;4.05;2.88;;;23.30;52.40;;;;;;4924744;29;20182;-66
2022/05/10 10:16:28;;;;;;;2.95;2.45;;;23.40;53.30;;;;;;4929158;29;20191;-67
2022/05/10 10:19:06;;;;;;;4.32;2.85;;;23.50;53.20;;;;;;4927415;29;20187;-65
2022/05/10 10:21:41;;;;;;;3.92;3.13;;;23.50;54.10;;;;;;4929061;29;20191;-68
2022/05/10 10:24:19;;;;;;;7.15;2.97;;;23.60;53.10;;;;;;4913889;29;20305;-66
2022/05/10 10:26:49;;;;;;;3.65;2.60;;;23.90;52.70;;;;;;4928825;29;20214;-68
2022/05/10 10:29:27;;;;;;;7.28;2.70;;;24.10;52.90;;;;;;4923139;29;20234;-67
2022/05/10 10:32:04;;;;;;;4.90;3.10;;;24.00;53.80;;;;;;4928830;29;20283;-66
2022/05/10 10:34:39;;;;;;;4.50;3.17;;;24.40;52.90;;;;;;4926383;29;20223;-66
2022/05/10 10:37:20;;;;;;;9.93;3.40;;;24.40;52.60;;;;;;4928998;29;20339;-66
2022/05/10 10:40:16;;;;;;;6.97;3.85;;;24.30;52.20;;;;;;4919243;29;20855;-65
2022/05/10 10:42:59;;;;;;;4.32;3.40;;;24.80;52.60;;;;;;4923880;29;20215;-67
2022/05/10 10:45:42;;;;;;;4.00;3.38;;;24.70;53.00;;;;;;4921501;29;20213;-66
2022/05/10 10:48:13;;;;;;;6.60;3.38;;;24.70;52.40;;;;;;4915694;29;20200;-66
2022/05/10 10:50:39;;;;;;;3.58;3.03;;;24.90;53.40;;;;;;4922626;29;20627;-67
2022/05/10 10:53:08;;;;;;;3.72;3.28;;;25.10;52.60;;;;;;4927972;29;20193;-67
2022/05/10 10:55:56;;;;;;;5.97;2.50;;;25.30;52.60;;;;;;4926289;29;20210;-66
2022/05/10 10:58:43;;;;;;;3.97;2.80;;;25.70;51.70;;;;;;4928079;29;20191;-66
2022/05/10 11:01:32;;;;;;;4.95;3.38;;;25.90;51.40;;;;;;4927164;29;20183;-68
2022/05/10 11:04:25;;;;;;;2.85;2.65;;;26.20;51.80;;;;;;4924648;29;20207;-65
2022/05/10 11:06:53;;;;;;;5.40;3.78;;;26.10;50.10;;;;;;4927979;29;20307;-67
2022/05/10 11:09:30;;;;;;;4.85;2.92;;;26.50;50.70;;;;;;4925834;29;20564;-68
2022/05/10 11:12:16;;;;;;;4.60;2.75;;;26.80;49.10;;;;;;4927482;29;20191;-66
2022/05/10 11:15:00;;;;;;;4.50;3.15;;;27.20;48.90;;;;;;4925175;29;20245;-66
2022/05/10 11:17:50;;;;;;;7.90;2.90;;;27.30;48.40;;;;;;4925337;29;20573;-66
2022/05/10 11:20:43;;;;;;;4.53;2.95;;;27.60;49.00;;;;;;4924518;29;20289;-67
2022/05/10 11:23:11;;;;;;;3.45;2.97;;;28.60;46.60;;;;;;4926525;29;20203;-68
2022/05/10 11:26:02;;;;;;;5.28;3.35;;;28.60;46.10;;;;;;4925359;29;20626;-68
2022/05/10 11:28:52;;;;;;;5.80;3.17;;;28.70;46.70;;;;;;4921352;29;20350;-68
2022/05/10 11:31:43;;;;;;;4.30;3.03;;;28.90;46.20;;;;;;4920226;29;20249;-70
2022/05/10 11:34:36;;;;;;;7.03;3.17;;;29.00;46.20;;;;;;4926329;29;20206;-69
2022/05/10 11:37:06;;;;;;;2.83;2.63;;;29.40;45.20;;;;;;4927858;29;20210;-68
2022/05/10 11:39:53;;;;;;;3.25;2.55;;;28.80;44.70;;;;;;4924122;29;20245;-68
2022/05/10 11:42:24;;;;;;;3.47;3.03;;;28.40;46.10;;;;;;4927766;29;20199;-67
2022/05/10 11:45:06;;;;;;;4.10;2.88;;;28.60;45.40;;;;;;4916312;29;21000;-68
2022/05/10 11:47:44;;;;;;;3.60;3.30;;;28.70;45.20;;;;;;4926783;29;20187;-67
2022/05/10 11:54:01;;;;;;;8.07;3.22;;;28.20;45.70;;;;;;4918848;29;20539;-68
2022/05/10 11:56:34;;;;;;;5.90;2.83;;;28.30;45.70;;;;;;4913145;29;20730;-67
2022/05/10 11:59:03;;;;;;;2.75;2.50;;;28.40;45.20;;;;;;4915275;29;20187;-67
2022/05/10 12:01:49;;;;;;;3.50;2.70;;;28.20;45.20;;;;;;4927211;29;20233;-67
2022/05/10 12:04:39;;;;;;;3.50;3.20;;;28.30;46.20;;;;;;4911432;29;20206;-67
2022/05/10 12:07:19;;;;;;;6.15;3.00;;;28.50;45.30;;;;;;4927959;29;20285;-68
2022/05/10 12:10:34;;;;;;;3.88;3.45;;;29.40;45.10;;;;;;4925465;29;20202;-68
2022/05/10 12:13:01;;;;;;;3.42;3.13;;;30.40;43.40;;;;;;4906500;29;20316;-67
2022/05/10 12:21:27;;;;;;;4.00;3.60;;;31.30;42.10;;;;;;4931432;29;20206;-68
2022/05/10 12:24:02;;;;;;;4.07;2.75;;;31.20;40.60;;;;;;4927528;29;20218;-67
2022/05/10 12:26:36;;;;;;;5.95;3.22;;;31.70;40.20;;;;;;4931091;29;20329;-68
2022/05/10 12:29:03;;;;;;;4.88;3.55;;;31.40;41.10;;;;;;4926683;29;20887;-67
2022/05/10 12:31:32;;;;;;;6.15;3.03;;;31.20;41.60;;;;;;4924871;29;20547;-67
2022/05/10 12:34:02;;;;;;;3.00;2.70;;;30.90;40.40;;;;;;4928763;29;20205;-67
2022/05/10 12:36:31;;;;;;;3.13;2.78;;;30.40;42.10;;;;;;4930538;29;20253;-68
2022/05/10 12:39:15;;;;;;;7.70;4.00;;;30.60;42.00;;;;;;4928823;29;20205;-67
2022/05/10 12:41:49;;;;;;;5.55;3.38;;;30.70;41.80;;;;;;4930837;29;20187;-67
2022/05/10 12:44:42;;;;;;;4.30;3.40;;;29.00;41.60;;;;;;4920836;29;20371;-67
2022/05/10 12:47:26;;;;;;;8.32;4.20;;;28.40;42.30;;;;;;4930598;29;20191;-67
2022/05/10 12:50:17;;;;;;;3.08;2.83;;;29.00;42.50;;;;;;4921724;29;20207;-66
2022/05/10 12:52:47;;;;;;;3.20;3.00;;;29.20;42.30;;;;;;4922225;29;20190;-66
2022/05/10 12:55:32;;;;;;;5.43;4.80;;;29.30;42.80;;;;;;4929174;29;20600;-66
2022/05/10 12:58:01;;;;;;;4.07;3.33;;;30.10;43.00;;;;;;4928348;29;20206;-66
2022/05/10 13:00:33;;;;;;;5.30;3.70;;;31.20;41.20;;;;;;4928583;29;20217;-66
2022/05/10 13:03:20;;;;;;;3.95;3.08;;;32.20;40.40;;;;;;4923631;29;20203;-67
2022/05/10 13:06:19;;;;;;;3.33;3.00;;;33.40;38.30;;;;;;4926900;29;20207;-67
2022/05/10 13:09:20;;;;;;;5.72;4.20;;;33.70;38.00;;;;;;4927550;29;20281;-67
2022/05/10 13:11:54;;;;;;;3.80;3.42;;;34.00;37.20;;;;;;4929177;29;20187;-67
2022/05/10 13:14:21;;;;;;;5.60;3.70;;;34.60;36.30;;;;;;4921606;29;20875;-67
2022/05/10 13:16:50;;;;;;;5.28;4.78;;;35.40;35.80;;;;;;4930290;29;20199;-67
2022/05/10 13:19:18;;;;;;;4.57;3.42;;;35.60;35.10;;;;;;4927924;29;20226;-67
2022/05/10 13:21:44;;;;;;;3.83;3.50;;;35.60;34.30;;;;;;4929453;29;20948;-67
2022/05/10 13:24:16;;;;;;;3.83;3.47;;;35.60;34.40;;;;;;4927209;29;20210;-67
2022/05/10 13:27:00;;;;;;;3.42;3.13;;;35.70;34.70;;;;;;4929563;29;20218;-67
2022/05/10 13:29:45;;;;;;;6.05;3.63;;;35.00;34.50;;;;;;4927503;29;20215;-67
2022/05/10 13:32:30;;;;;;;4.75;3.72;;;34.40;36.00;;;;;;4929258;29;20315;-67
2022/05/10 13:35:03;;;;;;;4.10;3.53;;;33.60;35.90;;;;;;4926093;29;20574;-67